Etusivu
METAR-TAF:

METAR-TAF

Lentoasemat :

Nouakchottin kansainvälinen lentoasema

Nouakchott, Mauritania

Leveyspiiri: 18-18-36N, Pituuspiiri: 015-58-11W, korkeus merenpinnasta: 3 m

Tämänhetkinen sää

Tämä raportti tehtiin 34 minuuttia sitten, kello 06.00 UTC
Tuuli 8 kn pohjoisesta/koillisesta
Lämpötila 11°C
Kosteus 40%
Ilmanpaine 1019 hPa
Näkyvyys 10 km tai enemmän
ei pilviä alle 1500 m:ssä eikä cumulonimbus-pilviä

METAR: GQNO 200600Z 03008KT CAVOK 11/M02 Q1019 NOSIG

Aika: 06:34 (06:34 UTC)

Sääennuste

Tämä raportti tehtiin 1 tunti ja 34 minuuttia sitten, kello 05.00 UTC
Ennuste voimassa 20. päivästä klo 06 UTC - 21. päivään klo 12 UTC
Tuuli 13 kn idästä/koillisesta
Näkyvyys: 6000 m
Todennäköisyys 40% :
Ajoittain
20. päivästä klo 10 UTC - 20. päivään klo 15 UTC
Näkyvyys: 3500 m
hiekkatuisku

TAF: GQNO 200500Z 2006/2112 06013KT 6000 NSC PROB40 TEMPO 2010/2015 3500 BLSA

Säähavainnot ja -ennusteet yli 4000 lentoasemalta (METAR- ja TAF-raportit).

Käytössä olevat sääasemat on merkitty karttaan keltaisilla ja punaisilla pisteillä.

Aseta hiiri pisteen päälle nähdäksesi sääaseman nimen.

Klikkaa sitten nähdäksesi säähavainnot ja -ennusteet.

Kartan vaihtaminen: klikkaa mustalla rastilla varustettuja vihreitä pisteitä, niin voit zoomata sisään; viivalla varustettua vihreää pistettä, niin voit zoomata ulos tai vihreitä nuolia, niin pääset viereisille kartoille.


METAR-TAF: